Boulevard West (444, 445, 6931) Station Data

Red Flag Warning: No
Fire Weather Zone: 258
SDGE Region: Mountain Empire
Lat/Lon: 32.662/-116.289

Observations

Time Wind Speed/Gust Temp(F) RH Fuel Moist Fuel Temp(F) Dewpt(F) Tmax(F) Tmin(F) Accum Precip 10-min Precip SL Press(mb)
2/27 11:40pm 228 16 G 25 42° 96% - - 41° 44.5° 40.2° - - -
2/27 11:20pm 220 16 G 25 41° 96% - - 40° 44.5° 40.2° - - -
2/27 11:10pm 216 16 G 27 41° 96% - - 40° 44.5° 40.2° - - -
2/27 11:00pm 215 15 G 22 41° 96% - - 40° 44.5° 40.2° - - -
2/27 10:50pm 217 18 G 27 41° 96% - - 40° 44.5° 40.2° - - -
2/27 10:40pm 216 17 G 26 41° 96% - - 40° 44.5° 40.2° - - -
2/27 10:30pm 216 17 G 28 41° 96% - - 40° 44.5° 40.2° - - -
2/27 10:20pm 218 20 G 29 41° 96% - - 40° 44.5° 40.2° - - -
2/27 10:10pm 220 19 G 28 41° 96% - - 40° 44.5° 40.2° - - -
2/27 10:00pm 222 20 G 32 42° 96% - - 41° 44.5° 40.2° - - -
2/27 9:50pm 223 20 G 26 42° 96% - - 41° 44.5° 40.2° - - -
2/27 9:40pm 220 18 G 29 42° 96% - - 41° 44.5° 40.2° - - -
2/27 9:30pm 221 18 G 30 42° 96% - - 41° 44.5° 40.2° - - -
2/27 9:20pm 220 22 G 33 42° 96% - - 41° 44.5° 40.2° - - -
2/27 9:10pm 223 21 G 31 42° 96% - - 41° 44.5° 40.2° - - -
2/27 9:00pm 224 20 G 33 42° 96% - - 41° 44.5° 40.2° - - -
2/27 8:50pm 222 22 G 32 42° 96% - - 41° 44.5° 40.2° - - -
2/27 8:40pm 225 21 G 36 42° 96% - - 41° 44.5° 40.2° - - -
2/27 8:30pm 228 21 G 31 42° 96% - - 41° 44.5° 40.2° - - -
2/27 8:20pm 229 22 G 32 42° 96% - - 41° 44.5° 40.2° - - -
2/27 8:10pm 228 19 G 29 42° 96% - - 41° 44.5° 40.2° - - -
2/27 8:00pm 227 19 G 28 42° 96% - - 40° 44.5° 40.2° - - -
2/27 7:50pm 226 19 G 28 42° 96% - - 40° 44.5° 40.2° - - -
2/27 7:40pm 225 21 G 29 42° 96% - - 40° 44.5° 40.2° - - -
2/27 7:30pm 224 22 G 32 42° 96% - - 40° 44.5° 40.2° - - -
2/27 7:20pm 222 22 G 32 41° 96% - - 40° 44.5° 40.2° - - -
2/27 7:10pm 223 18 G 27 41° 96% - - 40° 44.5° 40.2° - - -
2/27 7:00pm 217 18 G 26 41° 95% - - 40° 44.5° 40.2° - - -
2/27 6:50pm 218 17 G 24 41° 95% - - 40° 44.5° 40.2° - - -
2/27 6:40pm 220 16 G 23 41° 95% - - 40° 44.5° 40.2° - - -
2/27 6:30pm 224 15 G 21 41° 95% - - 40° 44.5° 40.2° - - -
2/27 6:20pm 217 17 G 26 41° 96% - - 40° 44.5° 40.2° - - -
2/27 6:10pm 218 16 G 26 41° 96% - - 40° 44.5° 40.2° - - -
2/27 6:00pm 217 17 G 27 41° 96% - - 40° 44.5° 40.2° - - -
2/27 5:50pm 219 18 G 24 41° 96% - - 40° 44.5° 40.2° - - -
2/27 5:40pm 223 19 G 28 41° 96% - - 40° 44.5° 40.2° - - -
2/27 5:30pm 224 19 G 29 41° 96% - - 40° 44.5° 40.2° - - -
2/27 5:20pm 222 17 G 29 41° 96% - - 40° 44.5° 40.2° - - -
2/27 5:10pm 218 21 G 30 42° 95% - - 40° 44.5° 40.2° - - -
2/27 5:00pm 222 18 G 28 42° 95% - - 41° 44.5° 40.2° - - -
2/27 4:50pm 222 18 G 26 42° 95% - - 41° 44.5° 40.2° - - -
2/27 4:40pm 229 19 G 28 42° 95% - - 41° 44.5° 40.2° - - -
2/27 4:30pm 230 19 G 28 42° 95% - - 41° 44.5° 40.2° - - -
2/27 4:20pm 237 17 G 26 42° 94% - - 41° 44.5° 40.2° - - -
2/27 4:10pm 244 20 G 31 42° 94% - - 41° 44.5° 40.2° - - -
2/27 4:00pm 250 20 G 28 42° 94% - - 41° 44.5° 40.2° - - -
2/27 3:50pm 254 18 G 28 42° 95% - - 41° 44.5° 40.2° - - -
2/27 3:40pm 254 19 G 27 42° 96% - - 41° 44.5° 40.2° - - -
2/27 3:30pm 248 19 G 27 42° 96% - - 41° 44.5° 40.2° - - -
2/27 3:20pm 246 20 G 30 42° 96% - - 41° 44.5° 40.2° - - -
2/27 3:10pm 237 20 G 31 43° 96% - - 42° 44.5° 40.2° - - -
2/27 3:00pm 233 17 G 27 43° 96% - - 42° 44.5° 40.2° - - -
2/27 2:50pm 231 17 G 23 42° 96% - - 41° 44.5° 40.2° - - -
2/27 2:40pm 228 17 G 26 42° 96% - - 41° 44.5° 40.2° - - -
2/27 2:30pm 225 18 G 27 42° 96% - - 41° 44.5° 40.2° - - -
2/27 2:20pm 227 17 G 25 42° 96% - - 41° 44.5° 40.2° - - -
2/27 2:10pm 222 18 G 27 42° 96% - - 41° 44.5° 40.2° - - -
2/27 2:00pm 217 18 G 27 42° 96% - - 41° 44.5° 40.2° - - -
2/27 1:50pm 219 19 G 27 42° 96% - - 41° 44.5° 40.2° - - -
2/27 1:40pm 221 21 G 30 42° 96% - - 41° 44.5° 40.2° - - -
2/27 1:30pm 219 21 G 33 43° 96% - - 41° 44.5° 40.2° - - -
2/27 1:20pm 216 22 G 31 43° 96% - - 42° 44.5° 40.2° - - -
2/27 1:10pm 215 20 G 33 43° 96% - - 42° 44.5° 40.2° - - -
2/27 1:00pm 220 23 G 31 44° 96% - - 42° 44.5° 40.2° - - -
2/27 12:50pm 220 20 G 28 44° 96% - - 42° 44.5° 40.2° - - -
2/27 12:40pm 220 21 G 34 44° 95% - - 43° 44.5° 40.2° - - -
2/27 12:30pm 219 23 G 34 44° 95% - - 42° 44.5° 40.2° - - -
2/27 12:20pm 218 22 G 34 44° 95% - - 43° 44.5° 40.2° - - -
2/27 12:10pm 218 23 G 33 44° 95% - - 43° 44.5° 40.2° - - -
2/27 12:00pm 215 22 G 36 44° 95% - - 43° 44.5° 40.2° - - -
2/27 11:50am 215 18 G 27 44° 95% - - 43° 44.5° 40.2° - - -
2/27 11:40am 216 19 G 31 44° 95% - - 43° 44.5° 40.2° - - -
2/27 11:30am 214 22 G 35 44° 95% - - 43° 44.5° 40.2° - - -
2/27 11:20am 213 22 G 35 44° 95% - - 43° 44.5° 40.2° - - -
2/27 11:10am 213 21 G 36 44° 95% - - 43° 44.5° 40.2° - - -
2/27 11:00am 215 21 G 36 44° 95% - - 43° 44.5° 40.2° - - -
2/27 10:50am 213 19 G 30 44° 95% - - 43° 44.5° 40.2° - - -
2/27 10:40am 211 21 G 32 44° 95% - - 43° 44.5° 40.2° - - -
2/27 10:30am 211 19 G 30 44° 95% - - 43° 44.5° 40.2° - - -
2/27 10:20am 209 20 G 28 44° 95% - - 43° 44.5° 40.2° - - -
2/27 10:10am 217 21 G 32 44° 95% - - 43° 44.5° 40.2° - - -
2/27 10:00am 213 17 G 27 44° 95% - - 43° 44.5° 40.2° - - -
2/27 9:50am 209 14 G 23 44° 95% - - 43° 44.5° 40.2° - - -
2/27 9:40am 209 13 G 22 44° 95% - - 43° 44.4° 40.2° - - -
2/27 9:30am 238 15 G 23 44° 95% - - 43° 44.4° 40.2° - - -
2/27 9:20am 245 15 G 22 44° 95% - - 43° 44.4° 40.2° - - -
2/27 9:10am 242 18 G 27 44° 95% - - 43° 44.4° 40.2° - - -
2/27 9:00am 237 16 G 24 44° 95% - - 43° 44.4° 40.2° - - -
2/27 8:50am 243 15 G 22 44° 95% - - 43° 44.4° 40.2° - - -
2/27 8:40am 251 14 G 20 44° 95% - - 43° 44.4° 40.2° - - -
2/27 8:30am 251 17 G 24 44° 95% - - 43° 44.4° 40.2° - - -
2/27 8:20am 244 20 G 28 44° 95% - - 43° 44.4° 40.2° - - -
2/27 8:10am 240 19 G 29 44° 95% - - 43° 44.4° 40.2° - - -
2/27 8:00am 237 17 G 26 44° 95% - - 43° 44.3° 40.2° - - -
2/27 7:50am 241 17 G 24 44° 95% - - 43° 44.3° 40.2° - - -
2/27 7:40am 237 18 G 27 44° 95% - - 42° 44.2° 40.2° - - -
2/27 7:30am 236 20 G 29 44° 95% - - 42° 44.2° 40.2° - - -
2/27 7:20am 231 21 G 31 44° 95% - - 43° 44.1° 40.2° - - -
2/27 7:10am 234 20 G 29 44° 95% - - 43° 44.1° 40.2° - - -
2/27 7:00am 238 19 G 28 44° 95% - - 43° 44.1° 40.2° - - -
2/27 6:50am 234 20 G 27 44° 95% - - 42° 43.9° 40.2° - - -
2/27 6:40am 236 23 G 33 44° 95% - - 42° 43.9° 40.2° - - -
2/27 6:30am 231 21 G 29 44° 95% - - 42° 43.9° 40.2° - - -
2/27 6:20am 231 21 G 30 44° 95% - - 42° 43.9° 40.2° - - -
2/27 6:10am 226 21 G 31 44° 95% - - 42° 43.9° 40.2° - - -
2/27 6:00am 227 23 G 33 44° 95% - - 42° 43.9° 40.2° - - -
2/27 5:50am 229 21 G 32 44° 95% - - 42° 43.9° 40.2° - - -
2/27 5:40am 238 19 G 29 44° 95% - - 42° 43.9° 40.2° - - -
2/27 5:30am 237 19 G 30 44° 95% - - 42° 43.9° 40.2° - - -
2/27 5:20am 237 19 G 30 44° 95% - - 42° 43.9° 40.2° - - -
2/27 5:10am 239 19 G 26 44° 95% - - 42° 43.9° 40.2° - - -
2/27 5:00am 241 20 G 26 44° 95% - - 42° 43.9° 40.2° - - -
2/27 4:50am 247 20 G 28 44° 95% - - 42° 43.9° 40.2° - - -
2/27 4:40am 245 19 G 25 44° 95% - - 42° 43.9° 40.2° - - -
2/27 4:30am 243 20 G 29 44° 95% - - 42° 43.9° 40.2° - - -
2/27 4:20am 244 20 G 28 44° 95% - - 42° 43.8° 40.2° - - -
2/27 4:10am 245 21 G 31 44° 95% - - 42° 43.8° 40.2° - - -
2/27 4:00am 246 21 G 29 44° 95% - - 42° 43.8° 40.2° - - -
2/27 3:50am 248 21 G 30 43° 95% - - 42° 43.7° 40.2° - - -
2/27 3:40am 248 20 G 27 43° 95% - - 42° 43.5° 40.2° - - -
2/27 3:30am 248 19 G 30 43° 95% - - 42° 43.4° 40.2° - - -
2/27 3:20am 249 19 G 27 43° 96% - - 42° 43.3° 40.2° - - -
2/27 3:10am 252 19 G 26 43° 96% - - 42° 43.2° 40.2° - - -
2/27 3:00am 250 21 G 29 43° 96% - - 42° 43° 40.2° - - -
2/27 2:50am 249 22 G 30 43° 96% - - 42° 43° 40.2° - - -
2/27 2:40am 249 22 G 30 43° 96% - - 42° 43° 40.2° - - -
2/27 2:30am 249 21 G 29 43° 96% - - 42° 43° 40.2° - - -
2/27 2:20am 247 24 G 31 43° 96% - - 42° 42.8° 40.2° - - -
2/27 2:10am 246 23 G 33 43° 96% - - 41° 42.8° 40.2° - - -
2/27 2:00am 248 22 G 31 42° 96% - - 41° 42.7° 40.2° - - -
2/27 1:50am 250 22 G 29 42° 96% - - 41° 42.4° 40.2° - - -
2/27 1:40am 252 21 G 30 42° 96% - - 41° 42.3° 40.2° - - -
2/27 1:30am 249 23 G 34 42° 96% - - 41° 42.3° 40.2° - - -
2/27 1:20am 250 24 G 33 42° 96% - - 41° 42° 40.2° - - -
2/27 1:10am 251 23 G 32 41° 96% - - 40° 41.7° 40.2° - - -
2/27 1:00am 253 24 G 31 41° 96% - - 40° 41.5° 40.2° - - -
2/27 12:50am 250 25 G 34 41° 96% - - 40° 41.5° 40.2° - - -
2/27 12:40am 250 26 G 36 41° 96% - - 40° 41.3° 40.2° - - -
2/27 12:30am 252 23 G 31 41° 96% - - 40° 41° 40.2° - - -
2/27 12:20am 253 24 G 34 40° 96% - - 39° 40.7° 40.2° - - -
2/27 12:10am 252 24 G 37 40° 96% - - 39° 40.6° 40.2° - - -
2/27 12:00am 253 23 G 31 40° 96% - - 39° 43.4° 36.1° - - -
2/26 11:50pm 254 24 G 34 40° 96% - - 39° 43.4° 36.1° - - -
2/26 11:40pm 253 24 G 32 40° 96% - - 39° 43.4° 36.1° - - -
2/26 11:30pm 253 23 G 36 40° 96% - - 39° 43.4° 36.1° - - -
2/26 11:20pm 252 24 G 36 40° 96% - - 39° 43.4° 36.1° - - -
2/26 11:10pm 253 23 G 34 40° 96% - - 39° 43.4° 36.1° - - -
2/26 11:00pm 255 22 G 33 40° 96% - - 38° 43.4° 36.1° - - -
2/26 10:50pm 255 23 G 32 39° 96% - - 38° 43.4° 36.1° - - -
2/26 10:40pm 256 23 G 33 39° 96% - - 38° 43.4° 36.1° - - -
2/26 10:30pm 255 22 G 30 39° 96% - - 38° 43.4° 36.1° - - -
2/26 10:20pm 255 23 G 34 40° 95% - - 38° 43.4° 36.1° - - -
2/26 10:10pm 253 23 G 33 40° 95% - - 38° 43.4° 36.1° - - -
2/26 10:00pm 253 23 G 33 40° 95% - - 38° 43.4° 36.1° - - -
2/26 9:50pm 257 24 G 37 40° 95% - - 38° 43.4° 36.1° - - -
2/26 9:40pm 256 23 G 33 39° 94% - - 38° 43.4° 36.1° - - -
2/26 9:30pm 255 25 G 35 39° 94% - - 38° 43.4° 36.1° - - -
2/26 9:20pm 257 27 G 36 39° 94% - - 38° 43.4° 36.1° - - -
2/26 9:10pm 257 25 G 35 39° 93% - - 37° 43.4° 36.1° - - -
2/26 9:00pm 253 24 G 36 39° 92% - - 37° 43.4° 36.1° - - -
2/26 8:50pm 252 26 G 39 39° 90% - - 37° 43.4° 36.1° - - -
2/26 8:40pm 253 27 G 40 40° 92% - - 37° 43.4° 36.1° - - -
2/26 8:30pm 254 28 G 38 40° 93% - - 38° 43.4° 36.1° - - -
2/26 8:20pm 253 25 G 40 40° 90% - - 38° 43.4° 36.1° - - -
2/26 8:10pm 252 26 G 40 40° 90% - - 37° 43.4° 36.1° - - -
2/26 8:00pm 246 28 G 40 40° 89% - - 37° 43.4° 36.1° - - -
2/26 7:50pm 251 25 G 40 40° 89% - - 37° 43.4° 36.1° - - -
2/26 7:40pm 246 25 G 38 41° 89% - - 37° 43.4° 36.1° - - -
2/26 7:30pm 246 24 G 35 40° 91% - - 38° 43.4° 36.1° - - -
2/26 7:20pm 248 22 G 33 40° 92% - - 38° 43.4° 36.1° - - -
2/26 7:10pm 248 22 G 32 40° 92% - - 38° 43.4° 36.1° - - -
2/26 7:00pm 250 19 G 28 40° 93% - - 38° 43.4° 36.1° - - -
2/26 6:50pm 251 18 G 26 40° 92% - - 38° 43.4° 36.1° - - -
2/26 6:40pm 253 17 G 28 40° 91% - - 37° 43.4° 36.1° - - -
2/26 6:30pm 254 15 G 28 40° 91% - - 37° 43.4° 36.1° - - -
2/26 6:20pm 256 13 G 22 40° 90% - - 37° 43.4° 36.1° - - -
2/26 6:10pm 254 14 G 23 40° 90% - - 38° 43.4° 36.1° - - -
2/26 6:00pm 252 11 G 18 40° 90% - - 38° 43.4° 36.1° - - -
2/26 5:50pm 252 13 G 21 40° 88% - - 37° 43.4° 36.1° - - -
2/26 5:40pm 257 14 G 24 41° 86% - - 37° 43.4° 36.1° - - -
2/26 5:30pm 252 15 G 22 41° 85% - - 37° 43.4° 36.1° - - -
2/26 5:20pm 254 14 G 22 41° 84% - - 37° 43.4° 36.1° - - -
2/26 5:10pm 254 14 G 22 41° 84% - - 37° 43.4° 36.1° - - -
2/26 5:00pm 251 15 G 22 41° 85% - - 37° 43.4° 36.1° - - -